createdAt,value
2023-09-30T00:01:59.574Z,956.28
2023-09-30T00:04:26.003Z,956.27
2023-09-30T00:06:52.449Z,956.18
2023-09-30T00:09:18.821Z,956.22
2023-09-30T00:11:45.306Z,956.19
2023-09-30T00:14:11.919Z,956.16
2023-09-30T00:16:38.535Z,956.20
2023-09-30T00:19:04.866Z,956.15
2023-09-30T00:21:31.491Z,956.15
2023-09-30T00:23:58.031Z,956.14
2023-09-30T00:26:24.413Z,956.16
2023-09-30T00:28:50.836Z,956.15
2023-09-30T00:31:17.304Z,956.16
2023-09-30T00:33:43.726Z,956.09
2023-09-30T00:36:10.334Z,956.10
2023-09-30T00:38:36.586Z,956.08
2023-09-30T00:41:02.994Z,956.17
2023-09-30T00:43:29.402Z,956.19
2023-09-30T00:45:55.917Z,956.18
2023-09-30T00:48:22.434Z,956.19
2023-09-30T00:50:48.852Z,956.14
2023-09-30T00:53:15.276Z,956.09
2023-09-30T00:55:41.702Z,956.05
2023-09-30T00:58:08.065Z,956.06
2023-09-30T01:00:34.624Z,956.07
2023-09-30T01:03:01.018Z,956.06
2023-09-30T01:05:27.391Z,956.06
2023-09-30T01:07:53.874Z,956.07
2023-09-30T01:10:20.318Z,956.06
2023-09-30T01:12:46.729Z,956.04
2023-09-30T01:15:13.208Z,956.06
2023-09-30T01:17:39.570Z,955.97
2023-09-30T01:20:06.050Z,956.00
2023-09-30T01:22:32.433Z,956.05
2023-09-30T01:24:58.819Z,956.06
2023-09-30T01:27:25.249Z,956.10
2023-09-30T01:29:51.674Z,956.17
2023-09-30T01:32:18.098Z,956.09
2023-09-30T01:34:44.542Z,956.08
2023-09-30T01:37:10.916Z,956.06
2023-09-30T01:39:37.461Z,956.06
2023-09-30T01:42:03.784Z,955.96
2023-09-30T01:44:30.283Z,955.96
2023-09-30T01:46:56.670Z,955.94
2023-09-30T01:49:23.139Z,955.96
2023-09-30T01:51:49.497Z,956.03
2023-09-30T01:54:16.088Z,955.92
2023-09-30T01:56:42.361Z,955.95
2023-09-30T01:59:08.808Z,955.98
2023-09-30T02:01:35.320Z,955.93
2023-09-30T02:04:02.059Z,955.92
2023-09-30T02:06:28.077Z,955.94
2023-09-30T02:08:54.516Z,955.92
2023-09-30T02:11:20.926Z,955.94
2023-09-30T02:13:47.358Z,955.95
2023-09-30T02:16:13.851Z,955.97
2023-09-30T02:18:40.443Z,955.98
2023-09-30T02:21:06.804Z,955.98
2023-09-30T02:23:33.204Z,955.98
2023-09-30T02:25:59.627Z,956.00
2023-09-30T02:28:26.068Z,955.96
2023-09-30T02:30:52.469Z,955.96
2023-09-30T02:33:19.218Z,955.96
2023-09-30T02:35:45.564Z,955.94
2023-09-30T02:38:12.002Z,955.97
2023-09-30T02:40:38.439Z,955.94
2023-09-30T02:43:04.875Z,955.94
2023-09-30T02:45:31.305Z,955.95
2023-09-30T02:47:57.769Z,955.98
2023-09-30T02:50:24.090Z,955.92
2023-09-30T02:52:50.569Z,955.97
2023-09-30T02:55:16.934Z,955.98
2023-09-30T02:57:43.422Z,955.92
2023-09-30T03:00:09.804Z,955.94
2023-09-30T03:02:36.270Z,955.95
2023-09-30T03:05:02.664Z,955.94
2023-09-30T03:07:29.053Z,955.94
2023-09-30T03:09:55.445Z,955.99
2023-09-30T03:12:21.886Z,955.97
2023-09-30T03:14:48.302Z,956.00
2023-09-30T03:17:14.866Z,956.00
2023-09-30T03:19:41.179Z,955.92
2023-09-30T03:22:07.703Z,956.04
2023-09-30T03:24:34.165Z,956.02
2023-09-30T03:27:00.568Z,955.99
2023-09-30T03:29:26.990Z,956.03
2023-09-30T03:31:53.419Z,955.96
2023-09-30T03:34:19.932Z,955.96
2023-09-30T03:36:46.365Z,955.95
2023-09-30T03:39:12.717Z,955.92
2023-09-30T03:41:39.152Z,955.97
2023-09-30T03:44:05.685Z,955.97
2023-09-30T03:46:32.295Z,955.96
2023-09-30T03:48:58.747Z,955.94
2023-09-30T03:51:25.147Z,955.91
2023-09-30T03:53:51.436Z,955.96
2023-09-30T03:56:17.847Z,955.91
2023-09-30T03:58:44.251Z,955.94
2023-09-30T04:01:10.789Z,955.99
2023-09-30T04:03:37.278Z,955.96
2023-09-30T04:06:03.592Z,956.03
2023-09-30T04:08:29.929Z,956.03
2023-09-30T04:10:56.353Z,956.06
2023-09-30T04:13:22.781Z,956.07
2023-09-30T04:15:50.173Z,956.07
2023-09-30T04:18:15.762Z,956.08
2023-09-30T04:20:42.110Z,956.11
2023-09-30T04:23:08.518Z,956.07
2023-09-30T04:25:34.941Z,956.12
2023-09-30T04:28:01.304Z,956.10
2023-09-30T04:30:27.867Z,956.13
2023-09-30T04:32:54.294Z,956.24
2023-09-30T04:35:20.688Z,956.24
2023-09-30T04:37:47.068Z,956.24
2023-09-30T04:40:13.548Z,956.22
2023-09-30T04:42:40.018Z,956.24
2023-09-30T04:45:06.410Z,956.23
2023-09-30T04:47:32.910Z,956.26
2023-09-30T04:49:59.272Z,956.27
2023-09-30T04:52:25.633Z,956.29
2023-09-30T04:54:52.179Z,956.32
2023-09-30T04:57:18.515Z,956.31
2023-09-30T04:59:45.020Z,956.28
2023-09-30T05:02:11.401Z,956.30
2023-09-30T05:04:37.935Z,956.33
2023-09-30T05:07:04.296Z,956.33
2023-09-30T05:09:30.867Z,956.34
2023-09-30T05:11:57.242Z,956.37
2023-09-30T05:14:23.910Z,956.40
2023-09-30T05:16:50.434Z,956.42
2023-09-30T05:19:16.743Z,956.44
2023-09-30T05:21:43.166Z,956.41
2023-09-30T05:24:09.550Z,956.43
2023-09-30T05:26:35.916Z,956.43
2023-09-30T05:29:02.407Z,956.43
2023-09-30T05:31:31.161Z,956.44
2023-09-30T05:33:55.344Z,956.53
2023-09-30T05:36:24.078Z,956.52
2023-09-30T05:38:50.499Z,956.49
2023-09-30T05:41:16.947Z,956.48
2023-09-30T05:43:43.365Z,956.54
2023-09-30T05:46:09.860Z,956.57
2023-09-30T05:48:36.278Z,956.58
2023-09-30T05:51:02.674Z,956.61
2023-09-30T05:53:29.100Z,956.66
2023-09-30T05:55:55.533Z,956.67
2023-09-30T05:58:22.080Z,956.55
2023-09-30T06:00:48.600Z,956.60
2023-09-30T06:03:15.063Z,956.60
2023-09-30T06:05:41.478Z,956.63
2023-09-30T06:08:07.900Z,956.68
2023-09-30T06:10:34.342Z,956.68
2023-09-30T06:13:00.980Z,956.68
2023-09-30T06:15:27.960Z,956.74
2023-09-30T06:17:53.765Z,956.71
2023-09-30T06:20:20.142Z,956.79
2023-09-30T06:22:46.616Z,956.83
2023-09-30T06:25:13.078Z,956.71
2023-09-30T06:27:39.492Z,956.78
2023-09-30T06:30:05.828Z,956.83
2023-09-30T06:32:32.318Z,956.86
2023-09-30T06:34:58.685Z,956.84
2023-09-30T06:37:25.211Z,956.80
2023-09-30T06:39:51.644Z,956.80
2023-09-30T06:42:18.215Z,956.86
2023-09-30T06:44:44.604Z,956.80
2023-09-30T06:47:11.148Z,956.77
2023-09-30T06:49:37.616Z,956.80
2023-09-30T06:52:04.115Z,956.75
2023-09-30T06:54:30.476Z,956.80
2023-09-30T06:56:56.911Z,956.90
2023-09-30T06:59:23.408Z,956.88
2023-09-30T07:01:50.336Z,956.93
2023-09-30T07:04:16.903Z,957.01
2023-09-30T07:06:43.318Z,956.96
2023-09-30T07:09:09.757Z,957.05
2023-09-30T07:11:36.298Z,957.01
2023-09-30T07:14:02.825Z,957.07
2023-09-30T07:16:29.520Z,957.00
2023-09-30T07:18:56.011Z,957.02
2023-09-30T07:21:22.311Z,956.98
2023-09-30T07:23:48.919Z,957.02
2023-09-30T07:26:15.424Z,957.01
2023-09-30T07:28:41.833Z,957.06
2023-09-30T07:31:08.514Z,957.04
2023-09-30T07:33:34.768Z,957.02
2023-09-30T07:36:01.245Z,957.05
2023-09-30T07:38:27.616Z,957.03
2023-09-30T07:40:54.116Z,957.03
2023-09-30T07:43:20.500Z,956.99
2023-09-30T07:45:47.056Z,957.05
2023-09-30T07:48:13.481Z,957.01
2023-09-30T07:50:39.833Z,957.01
2023-09-30T07:53:06.266Z,957.00
2023-09-30T07:55:33.036Z,957.02
2023-09-30T07:57:59.403Z,956.99
2023-09-30T08:00:25.918Z,956.96
2023-09-30T08:02:52.431Z,956.99
2023-09-30T08:05:18.861Z,957.04
2023-09-30T08:07:45.213Z,956.95
2023-09-30T08:10:11.702Z,957.00
2023-09-30T08:12:38.165Z,956.98
2023-09-30T08:15:05.034Z,957.00
2023-09-30T08:17:31.009Z,956.94
2023-09-30T08:19:57.456Z,956.94
2023-09-30T08:22:23.894Z,956.97
2023-09-30T08:24:50.381Z,956.93
2023-09-30T08:27:16.851Z,956.94
2023-09-30T08:29:43.299Z,956.93
2023-09-30T08:32:09.929Z,956.87
2023-09-30T08:34:36.349Z,956.95
2023-09-30T08:37:02.707Z,956.91
2023-09-30T08:39:29.386Z,956.93
2023-09-30T08:41:55.690Z,956.89
2023-09-30T08:44:22.186Z,956.90
2023-09-30T08:46:48.661Z,956.83
2023-09-30T08:49:14.995Z,956.87
2023-09-30T08:51:41.452Z,956.80
2023-09-30T08:54:07.818Z,956.84
2023-09-30T08:56:34.258Z,956.78
2023-09-30T08:59:00.680Z,956.83
2023-09-30T09:01:27.102Z,956.76
2023-09-30T09:03:53.706Z,956.74
2023-09-30T09:06:19.942Z,956.69
2023-09-30T09:08:46.416Z,956.66
2023-09-30T09:11:12.796Z,956.71
2023-09-30T09:13:39.266Z,956.66
2023-09-30T09:16:05.850Z,956.64
2023-09-30T09:18:32.201Z,956.64
2023-09-30T09:20:58.519Z,956.61
2023-09-30T09:23:24.976Z,956.61
2023-09-30T09:25:51.352Z,956.56
2023-09-30T09:28:17.761Z,956.63
2023-09-30T09:30:44.133Z,956.59
2023-09-30T09:33:10.649Z,956.52
2023-09-30T09:35:37.074Z,956.56
2023-09-30T09:38:03.498Z,956.56
2023-09-30T09:40:30.057Z,956.53
2023-09-30T09:42:56.460Z,956.58
2023-09-30T09:45:22.882Z,956.50
2023-09-30T09:47:49.361Z,956.51
2023-09-30T09:50:15.997Z,956.52
2023-09-30T09:52:42.389Z,956.45
2023-09-30T09:55:08.856Z,956.47
2023-09-30T09:57:36.287Z,956.40
2023-09-30T10:00:02.760Z,956.45
2023-09-30T10:02:29.605Z,956.42
2023-09-30T10:04:55.859Z,956.33
2023-09-30T10:07:22.340Z,956.38
2023-09-30T10:09:48.804Z,956.29
2023-09-30T10:12:15.182Z,956.26
2023-09-30T10:14:41.652Z,956.23
2023-09-30T10:17:08.035Z,956.18
2023-09-30T10:19:34.649Z,956.17
2023-09-30T10:22:01.320Z,956.18
2023-09-30T10:24:27.713Z,956.15
2023-09-30T10:26:54.172Z,956.21
2023-09-30T10:29:20.639Z,956.12
2023-09-30T10:31:47.103Z,956.11
2023-09-30T10:34:13.507Z,956.03
2023-09-30T10:36:39.906Z,956.10
2023-09-30T10:39:06.454Z,955.98
2023-09-30T10:41:32.915Z,956.04
2023-09-30T10:43:59.306Z,956.06
2023-09-30T10:46:25.729Z,955.96
2023-09-30T10:48:52.425Z,955.98
2023-09-30T10:51:18.749Z,955.93
2023-09-30T10:53:45.297Z,955.93
2023-09-30T10:56:11.714Z,955.94
2023-09-30T10:58:38.265Z,955.94
2023-09-30T11:01:04.777Z,955.91
2023-09-30T11:03:31.275Z,955.84
2023-09-30T11:06:11.704Z,955.86
2023-09-30T11:08:24.235Z,955.88
2023-09-30T11:10:50.589Z,955.87
2023-09-30T11:13:17.075Z,955.86
2023-09-30T11:15:43.502Z,955.83
2023-09-30T11:18:09.919Z,955.88
2023-09-30T11:20:36.414Z,955.83
2023-09-30T11:23:02.889Z,955.64
2023-09-30T11:25:29.331Z,955.66
2023-09-30T11:27:55.800Z,955.66
2023-09-30T11:30:22.283Z,955.69
2023-09-30T11:32:48.810Z,955.75
2023-09-30T11:35:15.160Z,955.61
2023-09-30T11:37:41.624Z,955.73
2023-09-30T11:40:08.340Z,955.60
2023-09-30T11:42:34.712Z,955.58
2023-09-30T11:45:01.094Z,955.58
2023-09-30T11:47:27.618Z,955.56
2023-09-30T11:49:54.173Z,955.55
2023-09-30T11:52:20.717Z,955.51
2023-09-30T11:54:47.140Z,955.50
2023-09-30T11:57:13.682Z,955.42
2023-09-30T11:59:40.327Z,955.42
2023-09-30T12:02:13.665Z,955.35
2023-09-30T12:04:33.350Z,955.29
2023-09-30T12:06:59.736Z,955.36
2023-09-30T12:09:26.193Z,955.33
2023-09-30T12:11:52.733Z,955.32
2023-09-30T12:14:19.107Z,955.27
2023-09-30T12:16:45.692Z,955.26
2023-09-30T12:19:12.318Z,955.22
2023-09-30T12:21:38.747Z,955.20
2023-09-30T12:24:05.159Z,955.16
2023-09-30T12:26:31.591Z,955.07
2023-09-30T12:28:58.229Z,955.08
2023-09-30T12:31:24.574Z,955.09
2023-09-30T12:33:50.868Z,955.08
2023-09-30T12:36:17.250Z,955.07
2023-09-30T12:38:43.772Z,955.04
2023-09-30T12:41:10.220Z,955.09
2023-09-30T12:43:36.939Z,955.05
2023-09-30T12:46:03.669Z,955.06
2023-09-30T12:48:29.840Z,955.01
2023-09-30T12:50:56.231Z,954.91
2023-09-30T12:53:22.593Z,954.92
2023-09-30T12:55:49.098Z,954.83
2023-09-30T12:58:15.615Z,954.90
2023-09-30T13:00:42.068Z,954.88
2023-09-30T13:03:08.446Z,954.86
2023-09-30T13:05:34.871Z,954.83
2023-09-30T13:08:01.232Z,954.80
2023-09-30T13:10:27.703Z,954.75
2023-09-30T13:12:54.114Z,954.73
2023-09-30T13:15:20.567Z,954.74
2023-09-30T13:17:47.025Z,954.75
2023-09-30T13:20:13.516Z,954.79
2023-09-30T13:22:39.903Z,954.71
2023-09-30T13:25:06.339Z,954.73
2023-09-30T13:27:32.707Z,954.76
2023-09-30T13:29:59.153Z,954.72
2023-09-30T13:32:25.522Z,954.65
2023-09-30T13:34:52.050Z,954.64
2023-09-30T13:37:18.454Z,954.71
2023-09-30T13:39:45.021Z,954.67
2023-09-30T13:42:11.420Z,954.62
2023-09-30T13:44:38.061Z,954.59
2023-09-30T13:47:04.478Z,954.55
2023-09-30T13:49:30.917Z,954.58
2023-09-30T13:51:57.330Z,954.53
2023-09-30T13:54:23.800Z,954.61
2023-09-30T13:56:50.153Z,954.51
2023-09-30T13:59:16.656Z,954.52
2023-09-30T14:01:43.109Z,954.49
2023-09-30T14:04:09.570Z,954.54
2023-09-30T14:06:35.905Z,954.50
2023-09-30T14:09:02.400Z,954.48
2023-09-30T14:11:28.923Z,954.42
2023-09-30T14:13:55.368Z,954.37
2023-09-30T14:16:21.828Z,954.41
2023-09-30T14:18:48.268Z,954.46
2023-09-30T14:21:14.829Z,954.38
2023-09-30T14:23:41.310Z,954.47
2023-09-30T14:26:07.680Z,954.38
2023-09-30T14:28:34.083Z,954.41
2023-09-30T14:31:00.591Z,954.39
2023-09-30T14:33:26.938Z,954.46
2023-09-30T14:35:53.322Z,954.43
2023-09-30T14:38:19.801Z,954.48
2023-09-30T14:40:46.152Z,954.47
2023-09-30T14:43:12.600Z,954.46
2023-09-30T14:45:39.019Z,954.45
2023-09-30T14:48:05.396Z,954.53
2023-09-30T14:50:31.840Z,954.45
2023-09-30T14:52:58.397Z,954.62
2023-09-30T14:55:24.813Z,954.54
2023-09-30T14:57:51.273Z,954.60
2023-09-30T15:00:17.676Z,954.59
2023-09-30T15:02:44.148Z,954.59
2023-09-30T15:05:10.865Z,954.50
2023-09-30T15:07:37.410Z,954.56
2023-09-30T15:10:03.914Z,954.58
2023-09-30T15:12:30.275Z,954.61
2023-09-30T15:14:56.634Z,954.66
2023-09-30T15:17:23.134Z,954.65
2023-09-30T15:19:49.569Z,954.57
2023-09-30T15:22:16.154Z,954.62
2023-09-30T15:24:42.513Z,954.66
2023-09-30T15:27:08.970Z,954.62
2023-09-30T15:29:35.315Z,954.67
2023-09-30T15:32:01.781Z,954.68
2023-09-30T15:34:28.161Z,954.65
2023-09-30T15:36:54.664Z,954.64
2023-09-30T15:39:20.960Z,954.64
2023-09-30T15:41:47.457Z,954.65
2023-09-30T15:44:13.812Z,954.68
2023-09-30T15:46:40.279Z,954.69
2023-09-30T15:49:06.697Z,954.70
2023-09-30T15:51:33.112Z,954.77
2023-09-30T15:53:59.627Z,954.75
2023-09-30T15:56:25.936Z,954.73
2023-09-30T15:58:52.284Z,954.80
2023-09-30T16:01:18.788Z,954.81
2023-09-30T16:03:45.189Z,954.83
2023-09-30T16:06:11.608Z,954.85
2023-09-30T16:08:37.940Z,954.89
2023-09-30T16:11:04.449Z,954.88
2023-09-30T16:13:30.826Z,954.84
2023-09-30T16:15:57.397Z,954.87
2023-09-30T16:18:23.764Z,954.91
2023-09-30T16:20:50.300Z,954.90
2023-09-30T16:23:16.697Z,954.97
2023-09-30T16:25:43.323Z,955.00
2023-09-30T16:28:09.937Z,955.01
2023-09-30T16:30:36.553Z,955.09
2023-09-30T16:33:02.728Z,955.05
2023-09-30T16:35:29.189Z,955.08
2023-09-30T16:37:55.629Z,955.08
2023-09-30T16:40:22.172Z,955.16
2023-09-30T16:42:48.724Z,955.18
2023-09-30T16:45:15.123Z,955.14
2023-09-30T16:47:41.529Z,955.19
2023-09-30T16:50:07.998Z,955.24
2023-09-30T16:52:34.460Z,955.23
2023-09-30T16:55:01.301Z,955.22
2023-09-30T16:57:27.303Z,955.22
2023-09-30T16:59:53.839Z,955.25
2023-09-30T17:02:20.193Z,955.24
2023-09-30T17:04:46.596Z,955.25
2023-09-30T17:07:13.241Z,955.23
2023-09-30T17:09:40.051Z,955.21
2023-09-30T17:12:06.522Z,955.29
2023-09-30T17:14:32.972Z,955.30
2023-09-30T17:16:59.358Z,955.30
2023-09-30T17:19:25.719Z,955.39
2023-09-30T17:21:52.177Z,955.40
2023-09-30T17:24:18.690Z,955.42
2023-09-30T17:26:45.396Z,955.39
2023-09-30T17:29:11.866Z,955.39
2023-09-30T17:31:38.484Z,955.41
2023-09-30T17:34:04.749Z,955.40
2023-09-30T17:36:32.391Z,955.42
2023-09-30T17:38:58.830Z,955.48
2023-09-30T17:41:25.269Z,955.46
2023-09-30T17:43:51.792Z,955.40
2023-09-30T17:46:18.280Z,955.42
2023-09-30T17:48:44.730Z,955.44
2023-09-30T17:51:11.071Z,955.50
2023-09-30T17:53:37.680Z,955.55
2023-09-30T17:56:04.029Z,955.43
2023-09-30T17:58:30.466Z,955.45
2023-09-30T18:00:56.829Z,955.52
2023-09-30T18:03:24.396Z,955.47
2023-09-30T18:05:50.820Z,955.51
2023-09-30T18:08:17.346Z,955.50
2023-09-30T18:10:43.774Z,955.49
2023-09-30T18:13:10.615Z,955.49
2023-09-30T18:15:36.975Z,955.53
2023-09-30T18:18:11.973Z,955.43
2023-09-30T18:20:29.914Z,955.48
2023-09-30T18:22:56.515Z,955.44
2023-09-30T18:25:22.981Z,955.43
2023-09-30T18:27:49.419Z,955.50
2023-09-30T18:30:15.839Z,955.48
2023-09-30T18:32:43.461Z,955.50
2023-09-30T18:35:09.959Z,955.52
2023-09-30T18:37:36.400Z,955.42
2023-09-30T18:40:05.260Z,955.49
2023-09-30T18:42:31.730Z,955.49
2023-09-30T18:44:58.137Z,955.53
2023-09-30T18:47:24.572Z,955.54
2023-09-30T18:49:50.951Z,955.50
2023-09-30T18:52:17.695Z,955.54
2023-09-30T18:54:44.042Z,955.55
2023-09-30T18:57:10.407Z,955.58
2023-09-30T18:59:36.769Z,955.55
2023-09-30T19:02:03.259Z,955.59
2023-09-30T19:04:29.594Z,955.60
2023-09-30T19:06:55.997Z,955.61
2023-09-30T19:09:22.315Z,955.54
2023-09-30T19:11:48.823Z,955.62
2023-09-30T19:14:15.322Z,955.64
2023-09-30T19:16:41.639Z,955.57
2023-09-30T19:19:08.010Z,955.61
2023-09-30T19:21:34.441Z,955.63
2023-09-30T19:24:00.877Z,955.57
2023-09-30T19:26:27.299Z,955.56
2023-09-30T19:28:53.687Z,955.53
2023-09-30T19:31:20.195Z,955.55
2023-09-30T19:33:46.593Z,955.60
2023-09-30T19:36:13.158Z,955.59
2023-09-30T19:38:39.530Z,955.65
2023-09-30T19:41:05.913Z,955.67
2023-09-30T19:43:32.304Z,955.70
2023-09-30T19:45:58.770Z,955.69
2023-09-30T19:48:25.064Z,955.71
2023-09-30T19:50:51.516Z,955.71
2023-09-30T19:53:17.972Z,955.70
2023-09-30T19:55:44.508Z,955.77
2023-09-30T19:58:11.149Z,955.76
2023-09-30T20:00:37.493Z,955.78
2023-09-30T20:03:03.934Z,955.78
2023-09-30T20:05:30.255Z,955.77
2023-09-30T20:07:56.792Z,955.75
2023-09-30T20:10:23.155Z,955.73
2023-09-30T20:12:49.763Z,955.76
2023-09-30T20:15:16.087Z,955.77
2023-09-30T20:17:42.659Z,955.77
2023-09-30T20:20:09.125Z,955.83
2023-09-30T20:22:35.565Z,955.86
2023-09-30T20:25:01.941Z,955.86
2023-09-30T20:27:28.427Z,955.83
2023-09-30T20:29:54.857Z,955.84
2023-09-30T20:32:21.308Z,955.90
2023-09-30T20:34:47.718Z,955.86
2023-09-30T20:37:14.203Z,955.87
2023-09-30T20:39:40.694Z,955.92
2023-09-30T20:42:07.013Z,955.93
2023-09-30T20:44:33.369Z,955.93
2023-09-30T20:46:59.906Z,955.93
2023-09-30T20:49:26.409Z,955.97
2023-09-30T20:51:52.791Z,955.94
2023-09-30T20:54:19.113Z,955.81
2023-09-30T20:56:45.573Z,955.88
2023-09-30T20:59:11.864Z,955.91
2023-09-30T21:01:38.447Z,955.87
2023-09-30T21:04:04.744Z,955.93
2023-09-30T21:06:31.253Z,955.91
2023-09-30T21:08:58.033Z,955.91
2023-09-30T21:11:24.127Z,955.91
2023-09-30T21:13:50.503Z,955.98
2023-09-30T21:16:17.028Z,955.85
2023-09-30T21:18:43.348Z,955.87
2023-09-30T21:21:09.758Z,955.82
2023-09-30T21:23:36.147Z,955.85
2023-09-30T21:26:02.631Z,955.89
2023-09-30T21:28:28.972Z,955.86
2023-09-30T21:30:55.635Z,955.81
2023-09-30T21:33:21.918Z,955.92
2023-09-30T21:35:48.357Z,955.87
2023-09-30T21:38:14.733Z,955.88
2023-09-30T21:40:41.215Z,955.86
2023-09-30T21:43:07.670Z,955.87
2023-09-30T21:45:34.076Z,955.85
2023-09-30T21:48:00.447Z,955.89
2023-09-30T21:50:26.865Z,955.91
2023-09-30T21:52:53.236Z,955.96
2023-09-30T21:55:20.174Z,955.94
2023-09-30T21:57:46.651Z,955.87
2023-09-30T22:00:13.002Z,955.98
2023-09-30T22:02:39.514Z,955.87
2023-09-30T22:05:05.959Z,955.97
2023-09-30T22:07:32.385Z,955.91
2023-09-30T22:09:58.887Z,955.90
2023-09-30T22:12:25.218Z,955.88
2023-09-30T22:14:51.729Z,955.93
2023-09-30T22:17:18.217Z,955.90
2023-09-30T22:19:44.672Z,955.88
2023-09-30T22:22:11.110Z,955.86
2023-09-30T22:24:37.469Z,955.86
2023-09-30T22:27:03.964Z,955.84
2023-09-30T22:29:30.353Z,955.82
2023-09-30T22:31:56.777Z,955.87
2023-09-30T22:34:23.170Z,955.85
2023-09-30T22:36:49.595Z,955.91
2023-09-30T22:39:17.961Z,955.97
2023-09-30T22:41:42.419Z,955.92
2023-09-30T22:44:08.880Z,955.92
2023-09-30T22:46:35.367Z,955.91
2023-09-30T22:49:01.993Z,955.92
2023-09-30T22:51:28.238Z,956.01
2023-09-30T22:53:54.726Z,955.93
2023-09-30T22:56:21.113Z,955.99
2023-09-30T22:58:47.584Z,956.00
2023-09-30T23:01:14.295Z,955.93
2023-09-30T23:03:40.905Z,955.96
2023-09-30T23:06:07.289Z,955.93
2023-09-30T23:08:33.721Z,955.93
2023-09-30T23:11:00.164Z,955.98
2023-09-30T23:13:26.572Z,955.96
2023-09-30T23:15:53.096Z,955.92
2023-09-30T23:18:19.703Z,955.95
2023-09-30T23:20:45.904Z,955.97
2023-09-30T23:23:12.487Z,955.94
2023-09-30T23:25:38.832Z,955.93
2023-09-30T23:28:05.325Z,955.90
2023-09-30T23:30:31.647Z,955.89
2023-09-30T23:32:58.775Z,955.84
2023-09-30T23:35:24.541Z,955.91
2023-09-30T23:37:50.972Z,955.92
2023-09-30T23:40:17.461Z,955.86
2023-09-30T23:42:43.886Z,955.92
2023-09-30T23:45:10.232Z,955.90
2023-09-30T23:47:48.918Z,955.86
2023-09-30T23:50:03.198Z,955.81
2023-09-30T23:52:29.632Z,955.81
2023-09-30T23:54:56.108Z,955.82
2023-09-30T23:57:22.483Z,955.71
2023-09-30T23:59:48.926Z,955.74
